sensor_id;sensor_type;location;lat;lon;timestamp;pressure;altitude;pressure_sealevel;temperature;humidity
54562;BME280;69047;53.358;-1.486;2023-08-31T00:02:20;99931.41;;;12.89;72.00
54562;BME280;69047;53.358;-1.486;2023-08-31T00:04:46;99926.00;;;13.22;70.84
54562;BME280;69047;53.358;-1.486;2023-08-31T00:07:11;99929.25;;;13.24;70.60
54562;BME280;69047;53.358;-1.486;2023-08-31T00:09:37;99923.38;;;13.41;70.16
54562;BME280;69047;53.358;-1.486;2023-08-31T00:12:02;99921.00;;;13.35;70.13
54562;BME280;69047;53.358;-1.486;2023-08-31T00:14:28;99910.34;;;13.09;70.77
54562;BME280;69047;53.358;-1.486;2023-08-31T00:16:53;99914.00;;;13.28;70.54
54562;BME280;69047;53.358;-1.486;2023-08-31T00:19:19;99920.13;;;13.39;70.07
54562;BME280;69047;53.358;-1.486;2023-08-31T00:21:44;99923.38;;;13.41;69.83
54562;BME280;69047;53.358;-1.486;2023-08-31T00:24:10;99914.94;;;13.43;70.00
54562;BME280;69047;53.358;-1.486;2023-08-31T00:26:36;99905.09;;;13.18;71.09
54562;BME280;69047;53.358;-1.486;2023-08-31T00:29:06;99913.06;;;13.38;69.94
54562;BME280;69047;53.358;-1.486;2023-08-31T00:31:32;99908.88;;;13.22;70.75
54562;BME280;69047;53.358;-1.486;2023-08-31T00:33:59;99908.88;;;13.22;70.87
54562;BME280;69047;53.358;-1.486;2023-08-31T00:36:30;99903.56;;;13.36;70.27
54562;BME280;69047;53.358;-1.486;2023-08-31T00:38:56;99901.31;;;13.19;70.94
54562;BME280;69047;53.358;-1.486;2023-08-31T00:41:22;99894.63;;;13.01;71.61
54562;BME280;69047;53.358;-1.486;2023-08-31T00:43:48;99897.09;;;12.98;71.86
54562;BME280;69047;53.358;-1.486;2023-08-31T00:46:14;99895.41;;;13.07;71.57
54562;BME280;69047;53.358;-1.486;2023-08-31T00:48:40;99891.28;;;12.81;72.88
54562;BME280;69047;53.358;-1.486;2023-08-31T00:51:07;99895.09;;;12.80;72.34
54562;BME280;69047;53.358;-1.486;2023-08-31T00:53:33;99890.53;;;12.70;72.54
54562;BME280;69047;53.358;-1.486;2023-08-31T00:55:58;99901.16;;;12.66;73.03
54562;BME280;69047;53.358;-1.486;2023-08-31T00:58:24;99899.91;;;12.49;73.54
54562;BME280;69047;53.358;-1.486;2023-08-31T01:06:47;99896.06;;;12.60;72.78
54562;BME280;69047;53.358;-1.486;2023-08-31T01:12:06;99902.84;;;12.57;72.63
54562;BME280;69047;53.358;-1.486;2023-08-31T01:14:41;99904.97;;;12.65;72.42
54562;BME280;69047;53.358;-1.486;2023-08-31T01:17:07;99903.53;;;12.78;72.25
54562;BME280;69047;53.358;-1.486;2023-08-31T01:19:44;99904.31;;;12.78;71.76
54562;BME280;69047;53.358;-1.486;2023-08-31T01:22:16;99911.88;;;12.87;71.79
54562;BME280;69047;53.358;-1.486;2023-08-31T01:24:44;99908.38;;;12.47;73.12
54562;BME280;69047;53.358;-1.486;2023-08-31T01:27:10;99898.31;;;12.43;73.79
54562;BME280;69047;53.358;-1.486;2023-08-31T01:29:35;99903.84;;;12.28;73.93
54562;BME280;69047;53.358;-1.486;2023-08-31T01:32:05;99893.63;;;12.58;72.60
54562;BME280;69047;53.358;-1.486;2023-08-31T01:34:30;99901.72;;;12.63;72.93
54562;BME280;69047;53.358;-1.486;2023-08-31T01:36:58;99899.28;;;12.62;72.57
54562;BME280;69047;53.358;-1.486;2023-08-31T01:39:39;99900.63;;;12.64;72.87
54562;BME280;69047;53.358;-1.486;2023-08-31T01:42:11;99898.97;;;12.68;72.41
54562;BME280;69047;53.358;-1.486;2023-08-31T01:44:39;99902.88;;;12.52;73.03
54562;BME280;69047;53.358;-1.486;2023-08-31T01:47:05;99899.72;;;12.40;73.81
54562;BME280;69047;53.358;-1.486;2023-08-31T01:49:40;99900.69;;;12.59;72.80
54562;BME280;69047;53.358;-1.486;2023-08-31T01:52:06;99904.00;;;12.46;72.68
54562;BME280;69047;53.358;-1.486;2023-08-31T01:54:32;99910.16;;;12.18;74.23
54562;BME280;69047;53.358;-1.486;2023-08-31T01:56:58;99905.34;;;12.54;73.04
54562;BME280;69047;53.358;-1.486;2023-08-31T01:59:23;99903.53;;;12.34;73.42
54562;BME280;69047;53.358;-1.486;2023-08-31T02:01:49;99911.59;;;12.49;73.00
54562;BME280;69047;53.358;-1.486;2023-08-31T02:04:14;99911.91;;;12.48;72.95
54562;BME280;69047;53.358;-1.486;2023-08-31T02:06:39;99912.81;;;12.33;73.02
54562;BME280;69047;53.358;-1.486;2023-08-31T02:09:05;99908.41;;;12.37;73.28
54562;BME280;69047;53.358;-1.486;2023-08-31T02:11:31;99912.03;;;12.23;73.82
54562;BME280;69047;53.358;-1.486;2023-08-31T02:14:03;99911.50;;;12.20;73.90
54562;BME280;69047;53.358;-1.486;2023-08-31T02:16:29;99911.47;;;12.26;73.75
54562;BME280;69047;53.358;-1.486;2023-08-31T02:18:55;99903.06;;;12.22;73.49
54562;BME280;69047;53.358;-1.486;2023-08-31T02:21:20;99900.84;;;12.34;72.92
54562;BME280;69047;53.358;-1.486;2023-08-31T02:23:46;99897.63;;;12.22;73.21
54562;BME280;69047;53.358;-1.486;2023-08-31T02:26:11;99897.88;;;11.56;75.41
54562;BME280;69047;53.358;-1.486;2023-08-31T02:28:37;99896.81;;;11.73;75.73
54562;BME280;69047;53.358;-1.486;2023-08-31T02:31:03;99894.63;;;11.80;75.06
54562;BME280;69047;53.358;-1.486;2023-08-31T02:33:28;99892.19;;;11.53;75.89
54562;BME280;69047;53.358;-1.486;2023-08-31T02:35:54;99897.38;;;11.54;76.22
54562;BME280;69047;53.358;-1.486;2023-08-31T02:38:21;99902.78;;;11.64;75.05
54562;BME280;69047;53.358;-1.486;2023-08-31T02:40:47;99902.84;;;11.24;76.33
54562;BME280;69047;53.358;-1.486;2023-08-31T02:43:13;99899.09;;;11.05;77.41
54562;BME280;69047;53.358;-1.486;2023-08-31T02:45:39;99900.63;;;11.51;75.89
54562;BME280;69047;53.358;-1.486;2023-08-31T02:48:06;99904.66;;;11.74;74.74
54562;BME280;69047;53.358;-1.486;2023-08-31T02:50:33;99895.66;;;11.84;74.00
54562;BME280;69047;53.358;-1.486;2023-08-31T02:52:59;99897.78;;;11.97;73.59
54562;BME280;69047;53.358;-1.486;2023-08-31T02:55:24;99891.28;;;11.93;73.29
54562;BME280;69047;53.358;-1.486;2023-08-31T02:57:50;99897.53;;;11.93;73.48
54562;BME280;69047;53.358;-1.486;2023-08-31T03:00:15;99895.13;;;11.82;73.93
54562;BME280;69047;53.358;-1.486;2023-08-31T03:02:41;99891.63;;;11.76;74.04
54562;BME280;69047;53.358;-1.486;2023-08-31T03:05:09;99886.78;;;11.73;73.87
54562;BME280;69047;53.358;-1.486;2023-08-31T03:07:34;99887.13;;;11.31;75.75
54562;BME280;69047;53.358;-1.486;2023-08-31T03:10:00;99895.22;;;11.41;75.75
54562;BME280;69047;53.358;-1.486;2023-08-31T03:12:25;99890.34;;;11.48;75.40
54562;BME280;69047;53.358;-1.486;2023-08-31T03:14:50;99883.31;;;11.32;75.82
54562;BME280;69047;53.358;-1.486;2023-08-31T03:17:16;99879.50;;;11.38;76.04
54562;BME280;69047;53.358;-1.486;2023-08-31T03:19:41;99875.09;;;11.68;74.52
54562;BME280;69047;53.358;-1.486;2023-08-31T03:22:06;99875.63;;;11.80;73.99
54562;BME280;69047;53.358;-1.486;2023-08-31T03:24:33;99870.47;;;11.68;74.34
54562;BME280;69047;53.358;-1.486;2023-08-31T03:26:58;99879.69;;;11.62;74.65
54562;BME280;69047;53.358;-1.486;2023-08-31T03:29:23;99869.13;;;11.76;74.03
54562;BME280;69047;53.358;-1.486;2023-08-31T03:31:49;99862.09;;;11.70;74.09
54562;BME280;69047;53.358;-1.486;2023-08-31T03:34:14;99868.03;;;11.72;73.77
54562;BME280;69047;53.358;-1.486;2023-08-31T03:36:40;99861.00;;;11.60;74.46
54562;BME280;69047;53.358;-1.486;2023-08-31T03:39:06;99873.72;;;11.65;74.42
54562;BME280;69047;53.358;-1.486;2023-08-31T03:41:31;99870.22;;;11.64;74.24
54562;BME280;69047;53.358;-1.486;2023-08-31T03:43:57;99864.81;;;11.59;74.04
54562;BME280;69047;53.358;-1.486;2023-08-31T03:46:22;99872.66;;;11.56;73.76
54562;BME280;69047;53.358;-1.486;2023-08-31T03:48:47;99862.94;;;11.50;74.47
54562;BME280;69047;53.358;-1.486;2023-08-31T03:51:13;99864.63;;;11.31;74.46
54562;BME280;69047;53.358;-1.486;2023-08-31T03:53:38;99869.31;;;10.90;76.38
54562;BME280;69047;53.358;-1.486;2023-08-31T03:56:04;99864.09;;;11.29;75.22
54562;BME280;69047;53.358;-1.486;2023-08-31T03:58:30;99865.69;;;11.40;74.88
54562;BME280;69047;53.358;-1.486;2023-08-31T04:00:56;99868.22;;;10.96;75.49
54562;BME280;69047;53.358;-1.486;2023-08-31T04:03:21;99867.69;;;10.89;76.81
54562;BME280;69047;53.358;-1.486;2023-08-31T04:05:47;99869.78;;;11.27;75.21
54562;BME280;69047;53.358;-1.486;2023-08-31T04:08:13;99868.47;;;11.09;75.63
54562;BME280;69047;53.358;-1.486;2023-08-31T04:10:38;99866.34;;;10.66;77.41
54562;BME280;69047;53.358;-1.486;2023-08-31T04:13:04;99880.66;;;11.12;75.83
54562;BME280;69047;53.358;-1.486;2023-08-31T04:15:29;99868.13;;;11.36;74.51
54562;BME280;69047;53.358;-1.486;2023-08-31T04:17:56;99883.63;;;11.21;75.20
54562;BME280;69047;53.358;-1.486;2023-08-31T04:20:21;99873.31;;;11.28;75.41
54562;BME280;69047;53.358;-1.486;2023-08-31T04:22:48;99879.00;;;11.31;74.57
54562;BME280;69047;53.358;-1.486;2023-08-31T04:25:14;99886.09;;;11.07;75.84
54562;BME280;69047;53.358;-1.486;2023-08-31T04:27:39;99883.63;;;11.16;75.85
54562;BME280;69047;53.358;-1.486;2023-08-31T04:30:05;99882.78;;;11.30;75.06
54562;BME280;69047;53.358;-1.486;2023-08-31T04:32:32;99883.03;;;11.39;74.25
54562;BME280;69047;53.358;-1.486;2023-08-31T04:34:58;99878.41;;;11.44;74.25
54562;BME280;69047;53.358;-1.486;2023-08-31T04:37:23;99894.69;;;11.49;73.86
54562;BME280;69047;53.358;-1.486;2023-08-31T04:39:48;99895.59;;;10.89;75.47
54562;BME280;69047;53.358;-1.486;2023-08-31T04:42:14;99889.88;;;10.50;77.50
54562;BME280;69047;53.358;-1.486;2023-08-31T04:44:42;99885.00;;;10.52;77.84
54562;BME280;69047;53.358;-1.486;2023-08-31T04:47:07;99901.50;;;11.11;75.85
54562;BME280;69047;53.358;-1.486;2023-08-31T04:49:32;99889.56;;;11.38;74.52
54562;BME280;69047;53.358;-1.486;2023-08-31T04:51:58;99893.69;;;10.90;76.43
54562;BME280;69047;53.358;-1.486;2023-08-31T04:54:24;99900.72;;;11.16;75.95
54562;BME280;69047;53.358;-1.486;2023-08-31T04:56:49;99905.31;;;11.26;75.13
54562;BME280;69047;53.358;-1.486;2023-08-31T04:59:15;99912.63;;;10.80;76.67
54562;BME280;69047;53.358;-1.486;2023-08-31T05:01:40;99903.97;;;10.93;77.57
54562;BME280;69047;53.358;-1.486;2023-08-31T05:04:06;99911.25;;;11.28;75.88
54562;BME280;69047;53.358;-1.486;2023-08-31T05:06:31;99905.03;;;11.22;75.49
54562;BME280;69047;53.358;-1.486;2023-08-31T05:08:57;99909.66;;;10.96;76.86
54562;BME280;69047;53.358;-1.486;2023-08-31T05:11:22;99906.38;;;10.99;76.58
54562;BME280;69047;53.358;-1.486;2023-08-31T05:13:47;99911.81;;;11.25;75.68
54562;BME280;69047;53.358;-1.486;2023-08-31T05:16:13;99909.38;;;11.03;76.13
54562;BME280;69047;53.358;-1.486;2023-08-31T05:18:39;99916.38;;;11.39;74.79
54562;BME280;69047;53.358;-1.486;2023-08-31T05:21:05;99910.66;;;11.51;74.56
54562;BME280;69047;53.358;-1.486;2023-08-31T05:23:31;99909.00;;;11.60;73.77
54562;BME280;69047;53.358;-1.486;2023-08-31T05:25:57;99909.56;;;11.52;73.94
54562;BME280;69047;53.358;-1.486;2023-08-31T05:28:23;99921.03;;;11.03;75.52
54562;BME280;69047;53.358;-1.486;2023-08-31T05:30:50;99912.31;;;11.37;75.43
54562;BME280;69047;53.358;-1.486;2023-08-31T05:33:19;99913.91;;;11.48;74.65
54562;BME280;69047;53.358;-1.486;2023-08-31T05:35:44;99909.09;;;11.25;75.68
54562;BME280;69047;53.358;-1.486;2023-08-31T05:38:10;99909.34;;;11.43;75.09
54562;BME280;69047;53.358;-1.486;2023-08-31T05:40:35;99907.91;;;11.66;74.18
54562;BME280;69047;53.358;-1.486;2023-08-31T05:43:01;99916.91;;;11.41;73.99
54562;BME280;69047;53.358;-1.486;2023-08-31T05:45:31;99908.78;;;11.36;74.61
54562;BME280;69047;53.358;-1.486;2023-08-31T05:47:56;99910.94;;;11.44;74.78
54562;BME280;69047;53.358;-1.486;2023-08-31T05:50:21;99913.69;;;11.34;75.17
54562;BME280;69047;53.358;-1.486;2023-08-31T05:52:47;99912.53;;;11.60;74.25
54562;BME280;69047;53.358;-1.486;2023-08-31T05:55:12;99913.88;;;11.73;73.87
54562;BME280;69047;53.358;-1.486;2023-08-31T05:57:38;99913.88;;;11.73;74.21
54562;BME280;69047;53.358;-1.486;2023-08-31T06:00:04;99914.72;;;11.74;74.25
54562;BME280;69047;53.358;-1.486;2023-08-31T06:02:32;99916.84;;;11.72;74.26
54562;BME280;69047;53.358;-1.486;2023-08-31T06:04:58;99914.16;;;11.56;74.64
54562;BME280;69047;53.358;-1.486;2023-08-31T06:07:24;99919.09;;;11.49;75.89
54562;BME280;69047;53.358;-1.486;2023-08-31T06:09:51;99925.84;;;11.47;75.75
54562;BME280;69047;53.358;-1.486;2023-08-31T06:12:20;99923.19;;;11.22;76.11
54562;BME280;69047;53.358;-1.486;2023-08-31T06:14:49;99919.88;;;11.55;75.36
54562;BME280;69047;53.358;-1.486;2023-08-31T06:17:15;99922.28;;;11.72;74.22
54562;BME280;69047;53.358;-1.486;2023-08-31T06:19:41;99918.44;;;11.83;73.71
54562;BME280;69047;53.358;-1.486;2023-08-31T06:22:07;99919.53;;;11.87;73.28
54562;BME280;69047;53.358;-1.486;2023-08-31T06:24:33;99918.22;;;11.59;74.22
54562;BME280;69047;53.358;-1.486;2023-08-31T06:26:59;99922.53;;;11.65;74.23
54562;BME280;69047;53.358;-1.486;2023-08-31T06:29:25;99932.31;;;11.76;73.94
54562;BME280;69047;53.358;-1.486;2023-08-31T06:31:50;99927.94;;;11.80;73.34
54562;BME280;69047;53.358;-1.486;2023-08-31T06:34:15;99930.94;;;11.84;73.77
54562;BME280;69047;53.358;-1.486;2023-08-31T06:36:41;99929.06;;;11.79;73.71
54562;BME280;69047;53.358;-1.486;2023-08-31T06:39:07;99923.41;;;11.50;74.80
54562;BME280;69047;53.358;-1.486;2023-08-31T06:41:32;99931.03;;;11.43;74.98
54562;BME280;69047;53.358;-1.486;2023-08-31T06:43:59;99929.91;;;11.44;76.13
54562;BME280;69047;53.358;-1.486;2023-08-31T06:46:24;99926.63;;;11.57;75.29
54562;BME280;69047;53.358;-1.486;2023-08-31T06:48:50;99924.47;;;11.54;76.02
54562;BME280;69047;53.358;-1.486;2023-08-31T06:51:16;99929.56;;;11.91;74.65
54562;BME280;69047;53.358;-1.486;2023-08-31T06:53:43;99934.09;;;12.06;73.83
54562;BME280;69047;53.358;-1.486;2023-08-31T06:56:09;99930.78;;;12.19;73.81
54562;BME280;69047;53.358;-1.486;2023-08-31T06:58:35;99930.47;;;12.26;73.22
54562;BME280;69047;53.358;-1.486;2023-08-31T07:01:01;99924.44;;;12.34;73.47
54562;BME280;69047;53.358;-1.486;2023-08-31T07:03:26;99925.44;;;12.53;72.70
54562;BME280;69047;53.358;-1.486;2023-08-31T07:05:52;99933.16;;;12.36;73.64
54562;BME280;69047;53.358;-1.486;2023-08-31T07:08:18;99934.03;;;12.16;74.38
54562;BME280;69047;53.358;-1.486;2023-08-31T07:10:43;99925.91;;;12.21;74.47
54562;BME280;69047;53.358;-1.486;2023-08-31T07:13:09;99928.53;;;12.31;73.24
54562;BME280;69047;53.358;-1.486;2023-08-31T07:15:35;99924.66;;;12.47;73.41
54562;BME280;69047;53.358;-1.486;2023-08-31T07:18:01;99925.94;;;12.60;73.32
54562;BME280;69047;53.358;-1.486;2023-08-31T07:20:26;99927.84;;;12.93;71.80
54562;BME280;69047;53.358;-1.486;2023-08-31T07:22:52;99922.03;;;13.10;71.53
54562;BME280;69047;53.358;-1.486;2023-08-31T07:25:18;99924.47;;;13.11;71.43
54562;BME280;69047;53.358;-1.486;2023-08-31T07:27:43;99930.28;;;12.95;72.06
54562;BME280;69047;53.358;-1.486;2023-08-31T07:30:09;99925.38;;;13.30;70.90
54562;BME280;69047;53.358;-1.486;2023-08-31T07:32:35;99933.09;;;13.47;70.64
54562;BME280;69047;53.358;-1.486;2023-08-31T07:35:00;99922.53;;;13.17;72.36
54562;BME280;69047;53.358;-1.486;2023-08-31T07:37:26;99936.19;;;13.36;71.53
54562;BME280;69047;53.358;-1.486;2023-08-31T07:39:51;99934.28;;;13.36;70.97
54562;BME280;69047;53.358;-1.486;2023-08-31T07:42:16;99936.38;;;13.73;70.66
54562;BME280;69047;53.358;-1.486;2023-08-31T07:44:42;99935.16;;;13.60;70.69
54562;BME280;69047;53.358;-1.486;2023-08-31T07:47:09;99943.19;;;13.47;70.61
54562;BME280;69047;53.358;-1.486;2023-08-31T07:49:34;99938.34;;;13.39;70.72
54562;BME280;69047;53.358;-1.486;2023-08-31T07:52:00;99938.84;;;13.46;70.50
54562;BME280;69047;53.358;-1.486;2023-08-31T07:54:25;99944.72;;;13.81;70.03
54562;BME280;69047;53.358;-1.486;2023-08-31T07:56:51;99944.41;;;13.83;69.62
54562;BME280;69047;53.358;-1.486;2023-08-31T07:59:17;99942.13;;;14.14;69.20
54562;BME280;69047;53.358;-1.486;2023-08-31T08:01:43;99944.38;;;14.54;68.15
54562;BME280;69047;53.358;-1.486;2023-08-31T08:04:09;99948.25;;;14.67;67.69
54562;BME280;69047;53.358;-1.486;2023-08-31T08:06:34;99935.88;;;14.74;67.72
54562;BME280;69047;53.358;-1.486;2023-08-31T08:09:00;99943.66;;;15.00;67.20
54562;BME280;69047;53.358;-1.486;2023-08-31T08:11:25;99939.66;;;15.11;67.03
54562;BME280;69047;53.358;-1.486;2023-08-31T08:13:50;99940.16;;;15.13;67.23
54562;BME280;69047;53.358;-1.486;2023-08-31T08:16:16;99928.34;;;15.17;65.95
54562;BME280;69047;53.358;-1.486;2023-08-31T08:18:41;99938.75;;;15.15;65.16
54562;BME280;69047;53.358;-1.486;2023-08-31T08:21:07;99936.59;;;15.31;63.68
54562;BME280;69047;53.358;-1.486;2023-08-31T08:23:32;99932.53;;;15.47;62.98
54562;BME280;69047;53.358;-1.486;2023-08-31T08:25:58;99928.84;;;15.38;63.39
54562;BME280;69047;53.358;-1.486;2023-08-31T08:28:25;99934.16;;;15.62;62.90
54562;BME280;69047;53.358;-1.486;2023-08-31T08:30:51;99927.38;;;15.73;62.62
54562;BME280;69047;53.358;-1.486;2023-08-31T08:33:16;99917.88;;;16.11;60.97
54562;BME280;69047;53.358;-1.486;2023-08-31T08:35:41;99918.84;;;16.29;60.68
54562;BME280;69047;53.358;-1.486;2023-08-31T08:38:07;99928.59;;;16.21;60.92
54562;BME280;69047;53.358;-1.486;2023-08-31T08:40:32;99926.41;;;16.59;60.40
54562;BME280;69047;53.358;-1.486;2023-08-31T08:43:01;99927.78;;;16.70;58.37
54562;BME280;69047;53.358;-1.486;2023-08-31T08:45:31;99924.06;;;16.88;58.57
54562;BME280;69047;53.358;-1.486;2023-08-31T08:48:02;99925.25;;;16.96;55.47
54562;BME280;69047;53.358;-1.486;2023-08-31T08:50:31;99924.78;;;16.58;59.04
54562;BME280;69047;53.358;-1.486;2023-08-31T08:53:01;99928.91;;;16.69;56.46
54562;BME280;69047;53.358;-1.486;2023-08-31T08:55:27;99928.56;;;16.84;57.18
54562;BME280;69047;53.358;-1.486;2023-08-31T08:57:53;99930.06;;;16.41;59.39
54562;BME280;69047;53.358;-1.486;2023-08-31T09:00:18;99931.47;;;16.38;57.76
54562;BME280;69047;53.358;-1.486;2023-08-31T09:02:43;99930.22;;;16.09;58.26
54562;BME280;69047;53.358;-1.486;2023-08-31T09:05:10;99922.94;;;16.53;57.92
54562;BME280;69047;53.358;-1.486;2023-08-31T09:07:36;99927.50;;;16.58;59.30
54562;BME280;69047;53.358;-1.486;2023-08-31T09:10:04;99922.56;;;16.60;58.52
54562;BME280;69047;53.358;-1.486;2023-08-31T09:12:30;99918.53;;;16.80;58.37
54562;BME280;69047;53.358;-1.486;2023-08-31T09:14:59;99919.84;;;16.82;57.78
54562;BME280;69047;53.358;-1.486;2023-08-31T09:17:25;99927.78;;;16.70;57.54
54562;BME280;69047;53.358;-1.486;2023-08-31T09:20:01;99929.59;;;16.97;57.30
54562;BME280;69047;53.358;-1.486;2023-08-31T09:22:26;99925.63;;;17.25;57.13
54562;BME280;69047;53.358;-1.486;2023-08-31T09:24:52;99920.28;;;16.98;57.81
54562;BME280;69047;53.358;-1.486;2023-08-31T09:27:19;99932.00;;;16.76;59.00
54562;BME280;69047;53.358;-1.486;2023-08-31T09:29:46;99926.75;;;17.02;57.19
54562;BME280;69047;53.358;-1.486;2023-08-31T09:32:20;99912.22;;;17.24;57.32
54562;BME280;69047;53.358;-1.486;2023-08-31T09:34:47;99920.63;;;17.27;56.25
54562;BME280;69047;53.358;-1.486;2023-08-31T09:37:15;99915.63;;;16.98;58.12
54562;BME280;69047;53.358;-1.486;2023-08-31T09:39:41;99917.41;;;17.25;57.62
54562;BME280;69047;53.358;-1.486;2023-08-31T09:42:07;99910.25;;;17.15;57.38
54562;BME280;69047;53.358;-1.486;2023-08-31T09:44:32;99908.38;;;17.02;59.28
54562;BME280;69047;53.358;-1.486;2023-08-31T09:46:58;99910.97;;;16.99;57.54
54562;BME280;69047;53.358;-1.486;2023-08-31T09:49:25;99913.31;;;16.92;58.09
54562;BME280;69047;53.358;-1.486;2023-08-31T09:51:51;99912.22;;;17.24;56.66
54562;BME280;69047;53.358;-1.486;2023-08-31T09:54:18;99919.28;;;17.16;58.33
54562;BME280;69047;53.358;-1.486;2023-08-31T09:56:45;99914.66;;;17.25;55.56
54562;BME280;69047;53.358;-1.486;2023-08-31T09:59:13;99911.66;;;17.57;53.64
54562;BME280;69047;53.358;-1.486;2023-08-31T10:01:45;99910.97;;;17.83;53.68
54562;BME280;69047;53.358;-1.486;2023-08-31T10:04:11;99900.94;;;17.78;55.57
54562;BME280;69047;53.358;-1.486;2023-08-31T10:06:41;99903.78;;;17.64;54.44
54562;BME280;69047;53.358;-1.486;2023-08-31T10:09:07;99906.84;;;17.63;54.95
54562;BME280;69047;53.358;-1.486;2023-08-31T10:11:38;99908.53;;;17.81;54.23
54562;BME280;69047;53.358;-1.486;2023-08-31T10:14:04;99900.47;;;17.85;52.44
54562;BME280;69047;53.358;-1.486;2023-08-31T10:16:30;99904.53;;;17.56;55.65
54562;BME280;69047;53.358;-1.486;2023-08-31T10:18:56;99895.88;;;17.32;54.42
54562;BME280;69047;53.358;-1.486;2023-08-31T10:21:22;99895.59;;;17.64;54.11
54562;BME280;69047;53.358;-1.486;2023-08-31T10:23:49;99895.75;;;17.37;55.68
54562;BME280;69047;53.358;-1.486;2023-08-31T10:26:31;99891.28;;;17.89;54.59
54562;BME280;69047;53.358;-1.486;2023-08-31T10:28:58;99890.03;;;17.95;48.92
54562;BME280;69047;53.358;-1.486;2023-08-31T10:31:29;99896.41;;;17.65;50.64
54562;BME280;69047;53.358;-1.486;2023-08-31T10:39:11;99893.38;;;17.84;49.78
54562;BME280;69047;53.358;-1.486;2023-08-31T10:41:38;99889.94;;;17.69;51.06
54562;BME280;69047;53.358;-1.486;2023-08-31T10:44:20;99877.69;;;17.58;52.12
54562;BME280;69047;53.358;-1.486;2023-08-31T10:46:45;99881.44;;;17.71;52.46
54562;BME280;69047;53.358;-1.486;2023-08-31T10:51:38;99878.53;;;17.76;51.18
54562;BME280;69047;53.358;-1.486;2023-08-31T10:54:19;99869.84;;;17.43;52.87
54562;BME280;69047;53.358;-1.486;2023-08-31T10:59:24;99865.03;;;17.80;49.16
54562;BME280;69047;53.358;-1.486;2023-08-31T11:04:19;99860.50;;;17.84;51.90
54562;BME280;69047;53.358;-1.486;2023-08-31T11:06:45;99865.53;;;17.90;50.86
54562;BME280;69047;53.358;-1.486;2023-08-31T11:09:21;99870.41;;;18.10;51.92
54562;BME280;69047;53.358;-1.486;2023-08-31T11:11:47;99870.72;;;18.00;52.84
54562;BME280;69047;53.358;-1.486;2023-08-31T11:14:15;99871.81;;;17.82;53.25
54562;BME280;69047;53.358;-1.486;2023-08-31T11:16:42;99864.94;;;17.62;54.47
54562;BME280;69047;53.358;-1.486;2023-08-31T11:19:08;99873.25;;;17.80;52.60
54562;BME280;69047;53.358;-1.486;2023-08-31T11:21:36;99875.84;;;17.85;53.66
54562;BME280;69047;53.358;-1.486;2023-08-31T11:24:01;99866.06;;;18.09;50.53
54562;BME280;69047;53.358;-1.486;2023-08-31T11:26:29;99872.31;;;18.01;50.60
54562;BME280;69047;53.358;-1.486;2023-08-31T11:28:58;99867.38;;;18.20;49.51
54562;BME280;69047;53.358;-1.486;2023-08-31T11:31:24;99867.38;;;18.38;49.50
54562;BME280;69047;53.358;-1.486;2023-08-31T11:33:49;99862.38;;;18.22;49.36
54562;BME280;69047;53.358;-1.486;2023-08-31T11:36:15;99861.41;;;18.27;50.08
54562;BME280;69047;53.358;-1.486;2023-08-31T11:38:43;99853.81;;;18.15;48.14
54562;BME280;69047;53.358;-1.486;2023-08-31T11:41:09;99858.16;;;18.25;49.00
54562;BME280;69047;53.358;-1.486;2023-08-31T11:43:34;99856.41;;;18.29;48.85
54562;BME280;69047;53.358;-1.486;2023-08-31T11:46:00;99853.84;;;18.67;48.02
54562;BME280;69047;53.358;-1.486;2023-08-31T11:48:26;99847.91;;;18.56;47.82
54562;BME280;69047;53.358;-1.486;2023-08-31T11:50:52;99858.34;;;18.46;49.42
54562;BME280;69047;53.358;-1.486;2023-08-31T11:53:18;99845.44;;;18.38;48.16
54562;BME280;69047;53.358;-1.486;2023-08-31T11:55:51;99845.81;;;18.53;47.60
54562;BME280;69047;53.358;-1.486;2023-08-31T11:58:17;99852.91;;;18.71;47.64
54562;BME280;69047;53.358;-1.486;2023-08-31T12:00:43;99844.75;;;19.09;44.81
54562;BME280;69047;53.358;-1.486;2023-08-31T12:03:08;99842.84;;;19.01;47.58
54562;BME280;69047;53.358;-1.486;2023-08-31T12:05:47;99843.16;;;19.00;47.12
54562;BME280;69047;53.358;-1.486;2023-08-31T12:08:16;99838.22;;;19.31;46.25
54562;BME280;69047;53.358;-1.486;2023-08-31T12:10:42;99843.09;;;19.25;47.16
54562;BME280;69047;53.358;-1.486;2023-08-31T12:13:08;99834.16;;;19.37;46.49
54562;BME280;69047;53.358;-1.486;2023-08-31T12:15:34;99844.69;;;19.44;45.46
54562;BME280;69047;53.358;-1.486;2023-08-31T12:18:11;99843.72;;;19.40;47.95
54562;BME280;69047;53.358;-1.486;2023-08-31T12:20:47;99848.25;;;19.73;44.75
54562;BME280;69047;53.358;-1.486;2023-08-31T12:23:13;99840.63;;;19.79;45.51
54562;BME280;69047;53.358;-1.486;2023-08-31T12:25:46;99845.78;;;20.10;44.72
54562;BME280;69047;53.358;-1.486;2023-08-31T12:28:11;99849.06;;;20.03;42.07
54562;BME280;69047;53.358;-1.486;2023-08-31T12:30:37;99853.75;;;19.73;41.63
54562;BME280;69047;53.358;-1.486;2023-08-31T12:33:03;99843.84;;;19.81;43.27
54562;BME280;69047;53.358;-1.486;2023-08-31T12:35:28;99838.69;;;19.42;42.79
54562;BME280;69047;53.358;-1.486;2023-08-31T12:37:55;99843.41;;;19.70;42.75
54562;BME280;69047;53.358;-1.486;2023-08-31T12:40:22;99843.97;;;19.55;42.81
54562;BME280;69047;53.358;-1.486;2023-08-31T12:42:49;99840.28;;;19.51;44.40
54562;BME280;69047;53.358;-1.486;2023-08-31T12:45:16;99837.78;;;19.67;41.41
54562;BME280;69047;53.358;-1.486;2023-08-31T12:47:41;99839.88;;;19.70;42.37
54562;BME280;69047;53.358;-1.486;2023-08-31T12:50:07;99840.22;;;19.60;42.93
54562;BME280;69047;53.358;-1.486;2023-08-31T12:52:33;99841.66;;;19.66;43.24
54562;BME280;69047;53.358;-1.486;2023-08-31T12:54:58;99843.50;;;19.53;43.77
54562;BME280;69047;53.358;-1.486;2023-08-31T12:57:23;99829.50;;;19.38;45.73
54562;BME280;69047;53.358;-1.486;2023-08-31T12:59:49;99834.22;;;19.28;45.47
54562;BME280;69047;53.358;-1.486;2023-08-31T13:02:14;99839.59;;;19.54;44.84
54562;BME280;69047;53.358;-1.486;2023-08-31T13:04:39;99840.72;;;19.62;42.11
54562;BME280;69047;53.358;-1.486;2023-08-31T13:07:05;99833.72;;;19.73;42.13
54562;BME280;69047;53.358;-1.486;2023-08-31T13:09:30;99838.00;;;20.12;43.94